Time;durP1;ratioP1;P1;durP2;ratioP2;P2;SDS_P1;SDS_P2;PMS_P1;PMS_P2;Temp;Humidity;BMP_temperature;BMP_pressure;BME280_temperature;BME280_humidity;BME280_pressure;Samples;Min_cycle;Max_cycle;Signal;HPM_P1;HPM_P2
2021/09/13 00:00:54;;;;;;;14.30;5.55;;;512.30;1638.40;;;;;;4890094;29;20094;-79
2021/09/13 00:03:20;;;;;;;15.45;6.35;;;512.20;1638.40;;;;;;4909134;29;20530;-78
2021/09/13 00:05:46;;;;;;;12.80;6.15;;;512.20;1612.80;;;;;;4899963;29;20040;-83
2021/09/13 00:08:12;;;;;;;8.32;5.28;;;512.40;1587.20;;;;;;4907498;29;20032;-81
2021/09/13 00:10:38;;;;;;;12.30;5.18;;;512.20;1587.20;;;;;;4890678;29;20021;-82
2021/09/13 00:13:04;;;;;;;16.42;6.22;;;512.20;1587.20;;;;;;4892060;29;20052;-81
2021/09/13 00:15:30;;;;;;;13.27;6.40;;;512.50;1587.20;;;;;;4889430;29;20084;-82
2021/09/13 00:17:55;;;;;;;15.73;7.07;;;512.60;1561.60;;;;;;4889803;29;20029;-81
2021/09/13 00:20:21;;;;;;;12.20;5.82;;;512.60;1587.20;;;;;;4908784;29;20060;-79
2021/09/13 00:22:47;;;;;;;12.00;5.70;;;512.60;1561.60;;;;;;4908894;29;20494;-79
2021/09/13 00:25:12;;;;;;;9.35;5.82;;;512.80;1561.60;;;;;;4908003;29;20032;-78
2021/09/13 00:27:38;;;;;;;11.63;5.63;;;512.70;1561.60;;;;;;4907795;29;20036;-80
2021/09/13 00:30:06;;;;;;;16.42;6.40;;;512.60;1561.60;;;;;;4907278;29;20040;-79
2021/09/13 00:32:31;;;;;;;12.85;5.53;;;512.70;1561.60;;;;;;4908516;29;20032;-81
2021/09/13 00:34:57;;;;;;;10.77;5.88;;;512.70;1561.60;;;;;;4907843;29;20092;-80
2021/09/13 00:37:23;;;;;;;10.50;5.88;;;512.60;1561.60;;;;;;4905902;29;20036;-79
2021/09/13 00:39:49;;;;;;;9.73;5.97;;;512.60;1587.20;;;;;;4908519;29;20062;-81
2021/09/13 00:42:14;;;;;;;11.48;5.57;;;512.50;1587.20;;;;;;4890653;29;20487;-79
2021/09/13 00:44:40;;;;;;;9.05;5.28;;;512.50;1587.20;;;;;;4906625;29;20028;-80
2021/09/13 00:47:06;;;;;;;7.95;5.65;;;512.50;1587.20;;;;;;4908187;29;20088;-78
2021/09/13 00:49:32;;;;;;;12.30;5.88;;;512.40;1587.20;;;;;;4921017;29;20431;-81
2021/09/13 00:51:58;;;;;;;12.63;6.45;;;512.40;1587.20;;;;;;4921649;29;20095;-78
2021/09/13 00:54:24;;;;;;;10.85;5.88;;;512.30;1587.20;;;;;;4925109;29;20491;-78
2021/09/13 00:56:50;;;;;;;8.48;5.47;;;512.30;1587.20;;;;;;4921145;29;20040;-77
2021/09/13 00:59:15;;;;;;;11.63;5.82;;;512.20;1612.80;;;;;;4922536;29;20027;-78
2021/09/13 01:01:41;;;;;;;11.10;5.90;;;512.20;1612.80;;;;;;4925095;29;20032;-80
2021/09/13 01:04:07;;;;;;;8.00;5.53;;;512.50;1612.80;;;;;;4921194;29;20036;-78
2021/09/13 01:06:33;;;;;;;10.57;5.97;;;512.10;1612.80;;;;;;4924932;29;20020;-79
2021/09/13 01:08:59;;;;;;;9.90;5.70;;;512.10;1612.80;;;;;;4924132;29;20477;-78
2021/09/13 01:11:26;;;;;;;12.10;5.13;;;512.00;1638.40;;;;;;4924432;29;20087;-79
2021/09/13 01:13:51;;;;;;;10.52;6.30;;;487.30;1638.40;;;;;;4923929;29;20020;-79
2021/09/13 01:16:17;;;;;;;9.70;5.30;;;487.10;1689.60;;;;;;4924533;29;20382;-79
2021/09/13 01:18:43;;;;;;;7.72;5.53;;;487.10;1715.20;;;;;;4924923;29;20031;-78
2021/09/13 01:21:09;;;;;;;13.57;6.25;;;487.10;1715.20;;;;;;4920950;29;20027;-78
2021/09/13 01:23:37;;;;;;;10.43;5.90;;;486.90;1766.40;;;;;;4925682;29;20450;-78
2021/09/13 01:26:13;;;;;;;10.57;5.60;;;486.80;1792.00;;;;;;4924719;29;20118;-78
2021/09/13 01:28:39;;;;;;;9.90;5.63;;;486.80;1766.40;;;;;;4926072;29;20031;-79
2021/09/13 01:31:04;;;;;;;13.65;5.70;;;486.90;1740.80;;;;;;4924411;29;20039;-78
2021/09/13 01:33:31;;;;;;;12.60;6.55;;;486.90;1766.40;;;;;;4919564;29;20107;-76
2021/09/13 01:35:57;;;;;;;12.35;6.43;;;486.90;1766.40;;;;;;4924506;29;20071;-79
2021/09/13 01:38:25;;;;;;;13.20;6.63;;;487.00;1740.80;;;;;;4924975;29;20560;-75
2021/09/13 01:40:52;;;;;;;9.55;6.10;;;486.80;1766.40;;;;;;4925006;29;20124;-78
2021/09/13 01:43:18;;;;;;;9.75;6.05;;;486.80;1766.40;;;;;;4929392;29;20024;-77
2021/09/13 01:45:44;;;;;;;11.90;5.90;;;486.70;1792.00;;;;;;4927820;29;20024;-78
2021/09/13 01:48:09;;;;;;;14.15;6.35;;;486.50;1817.60;;;;;;4929187;29;20076;-79
2021/09/13 01:50:35;;;;;;;13.82;6.63;;;486.50;1817.60;;;;;;4929462;29;20091;-79
2021/09/13 01:53:02;;;;;;;9.60;5.80;;;486.50;1817.60;;;;;;4927833;29;20545;-78
2021/09/13 01:55:28;;;;;;;8.40;6.28;;;486.40;1817.60;;;;;;4928990;29;20076;-78
2021/09/13 01:57:56;;;;;;;10.48;6.32;;;461.70;1843.20;;;;;;4929658;29;20032;-78
2021/09/13 02:00:25;;;;;;;14.32;7.00;;;486.40;1843.20;;;;;;4910872;29;20034;-79
2021/09/13 02:02:51;;;;;;;7.65;5.85;;;486.40;1817.60;;;;;;4929581;29;20038;-79
2021/09/13 02:05:16;;;;;;;7.88;6.05;;;486.40;1817.60;;;;;;4924654;29;20111;-76
2021/09/13 02:07:42;;;;;;;14.23;6.68;;;486.40;1843.20;;;;;;4930001;29;20039;-79
2021/09/13 02:10:08;;;;;;;12.32;6.72;;;461.70;1868.80;;;;;;4928872;29;20524;-76
2021/09/13 02:12:34;;;;;;;14.38;6.82;;;486.40;1868.80;;;;;;4916174;29;20048;-78
2021/09/13 02:15:00;;;;;;;14.88;7.25;;;486.40;1894.40;;;;;;4901606;29;20092;-80
2021/09/13 02:17:25;;;;;;;14.65;7.03;;;486.40;1920.00;;;;;;4890489;29;20031;-79
2021/09/13 02:19:51;;;;;;;12.45;6.30;;;486.40;1894.40;;;;;;4894612;29;20052;-76
2021/09/13 02:22:17;;;;;;;15.82;6.93;;;486.40;1894.40;;;;;;4887916;29;20087;-79
2021/09/13 02:24:43;;;;;;;13.95;7.10;;;486.40;1920.00;;;;;;4890892;29;20360;-78
2021/09/13 02:27:09;;;;;;;9.95;6.30;;;461.70;1920.00;;;;;;4889456;29;20038;-77
2021/09/13 02:29:36;;;;;;;15.75;7.65;;;461.60;1945.60;;;;;;4882934;29;20045;-80
2021/09/13 02:32:02;;;;;;;10.55;6.88;;;461.60;1920.00;;;;;;4890977;29;20480;-76
2021/09/13 02:34:29;;;;;;;13.73;6.43;;;461.50;1920.00;;;;;;4889868;29;20041;-79
2021/09/13 02:36:54;;;;;;;18.70;7.55;;;461.40;1971.20;;;;;;4889710;29;20539;-75
2021/09/13 02:39:20;;;;;;;14.75;7.55;;;461.40;1971.20;;;;;;4890964;29;20028;-84
2021/09/13 02:41:46;;;;;;;10.73;7.97;;;461.20;1945.60;;;;;;4892159;29;20036;-77
2021/09/13 02:44:12;;;;;;;13.40;7.20;;;461.20;1920.00;;;;;;4891808;29;20024;-78
2021/09/13 02:46:38;;;;;;;13.13;8.25;;;461.10;1920.00;;;;;;4889869;29;20089;-79
2021/09/13 02:49:03;;;;;;;14.85;7.95;;;461.20;1920.00;;;;;;4890209;29;20033;-79
2021/09/13 02:51:29;;;;;;;15.10;8.55;;;461.10;1920.00;;;;;;4883953;29;20029;-80
2021/09/13 02:53:55;;;;;;;17.35;8.35;;;461.10;1920.00;;;;;;4911708;29;20029;-84
2021/09/13 02:56:20;;;;;;;19.13;9.00;;;461.20;1920.00;;;;;;4891887;29;20073;-83
2021/09/13 02:58:46;;;;;;;14.90;8.52;;;461.20;1920.00;;;;;;4890553;29;20028;-80
2021/09/13 03:01:13;;;;;;;14.38;8.82;;;461.20;1945.60;;;;;;4891628;29;20372;-82
2021/09/13 03:03:38;;;;;;;14.60;8.38;;;461.10;1945.60;;;;;;4884001;29;20108;-82
2021/09/13 03:06:04;;;;;;;12.85;8.30;;;461.10;1945.60;;;;;;4891556;29;20108;-83
2021/09/13 03:08:30;;;;;;;19.30;7.60;;;461.10;1971.20;;;;;;4898546;29;20060;-83
2021/09/13 03:10:56;;;;;;;16.20;8.48;;;461.10;1971.20;;;;;;4891481;29;20032;-82
2021/09/13 03:13:21;;;;;;;16.60;8.73;;;461.00;1971.20;;;;;;4890443;29;20025;-87
2021/09/13 03:15:47;;;;;;;15.00;8.77;;;461.10;1971.20;;;;;;4901191;29;20501;-84
2021/09/13 03:18:13;;;;;;;11.73;8.65;;;461.10;1971.20;;;;;;4888131;29;20617;-85
2021/09/13 03:20:39;;;;;;;15.57;8.55;;;461.00;1996.80;;;;;;4889986;29;20028;-84
2021/09/13 03:23:04;;;;;;;12.55;7.95;;;461.10;1971.20;;;;;;4906525;29;20056;-84
2021/09/13 03:25:30;;;;;;;13.25;7.95;;;461.00;1971.20;;;;;;4888888;29;20434;-82
2021/09/13 03:27:58;;;;;;;13.07;8.60;;;461.00;1971.20;;;;;;4885597;29;20499;-82
2021/09/13 03:30:24;;;;;;;12.93;8.52;;;461.00;1971.20;;;;;;4892112;29;20475;-85
2021/09/13 03:32:49;;;;;;;14.63;7.90;;;461.10;1971.20;;;;;;4889514;29;20084;-82
2021/09/13 03:35:15;;;;;;;15.32;8.35;;;461.10;1971.20;;;;;;4891497;29;20100;-84
2021/09/13 03:37:41;;;;;;;12.63;8.82;;;461.10;1971.20;;;;;;4891414;29;20028;-83
2021/09/13 03:40:07;;;;;;;18.25;9.13;;;461.10;1971.20;;;;;;4886408;29;20483;-83
2021/09/13 03:42:33;;;;;;;22.13;8.90;;;461.00;1971.20;;;;;;4883786;29;20036;-76
2021/09/13 03:44:58;;;;;;;16.25;8.68;;;461.00;1971.20;;;;;;4888782;29;20420;-79
2021/09/13 03:47:24;;;;;;;15.82;8.40;;;461.10;1971.20;;;;;;4889584;29;20119;-78
2021/09/13 03:49:50;;;;;;;18.88;9.18;;;461.00;1971.20;;;;;;4889999;29;20518;-80
2021/09/13 03:52:16;;;;;;;13.70;8.23;;;461.00;1971.20;;;;;;4880607;29;20029;-80
2021/09/13 03:54:41;;;;;;;12.38;8.80;;;461.00;1971.20;;;;;;4885289;29;20040;-79
2021/09/13 03:57:07;;;;;;;11.00;8.02;;;461.00;1971.20;;;;;;4889480;29;20025;-80
2021/09/13 03:59:33;;;;;;;13.07;8.93;;;460.80;1971.20;;;;;;4888465;29;20435;-79
2021/09/13 04:01:59;;;;;;;15.63;8.45;;;460.90;1971.20;;;;;;4890301;29;20497;-78
2021/09/13 04:04:28;;;;;;;13.30;9.07;;;461.00;1971.20;;;;;;4888896;29;20032;-79
2021/09/13 04:07:03;;;;;;;14.43;9.25;;;461.00;1945.60;;;;;;4888263;29;20025;-79
2021/09/13 04:11:59;;;;;;;16.00;8.80;;;461.10;1945.60;;;;;;4890185;29;20455;-79
2021/09/13 04:14:27;;;;;;;15.98;9.65;;;461.10;1945.60;;;;;;4889482;29;20029;-80
2021/09/13 04:16:53;;;;;;;18.45;9.07;;;461.10;1945.60;;;;;;4889801;29;20024;-77
2021/09/13 04:19:20;;;;;;;17.67;8.88;;;461.10;1945.60;;;;;;4879036;29;20035;-79
2021/09/13 04:21:46;;;;;;;13.50;9.00;;;461.00;1971.20;;;;;;4888710;29;20533;-79
2021/09/13 04:24:12;;;;;;;14.13;8.95;;;461.00;1971.20;;;;;;4888087;29;20025;-79
2021/09/13 04:26:38;;;;;;;11.85;8.20;;;461.00;1971.20;;;;;;4881791;29;20085;-80
2021/09/13 04:29:03;;;;;;;15.80;9.52;;;461.00;1971.20;;;;;;4888261;29;20432;-78
2021/09/13 04:31:30;;;;;;;18.10;9.35;;;461.10;1945.60;;;;;;4889057;29;20035;-79
2021/09/13 04:33:55;;;;;;;15.88;9.07;;;461.10;1945.60;;;;;;4886610;29;20044;-80
2021/09/13 04:36:21;;;;;;;14.20;8.80;;;461.20;1945.60;;;;;;4889404;29;20490;-80
2021/09/13 04:38:47;;;;;;;15.80;8.98;;;461.20;1971.20;;;;;;4888721;29;20045;-78
2021/09/13 04:41:13;;;;;;;13.35;9.02;;;461.10;1971.20;;;;;;4887709;29;20032;-80
2021/09/13 04:43:39;;;;;;;14.75;10.25;;;461.10;1996.80;;;;;;4889448;29;20068;-79
2021/09/13 04:46:05;;;;;;;13.50;9.90;;;461.10;1971.20;;;;;;4889619;29;20031;-78
2021/09/13 04:48:31;;;;;;;13.18;8.73;;;461.20;1971.20;;;;;;4889050;29;20037;-80
2021/09/13 04:50:57;;;;;;;20.20;9.02;;;461.10;1971.20;;;;;;4887581;29;20505;-80
2021/09/13 04:53:22;;;;;;;19.80;9.77;;;461.10;1971.20;;;;;;4889622;29;20024;-79
2021/09/13 04:55:48;;;;;;;17.00;9.32;;;461.10;1945.60;;;;;;4887825;29;20032;-80
2021/09/13 04:58:14;;;;;;;19.02;9.98;;;461.10;1945.60;;;;;;4879767;29;20045;-80
2021/09/13 05:00:40;;;;;;;16.65;9.30;;;461.10;1945.60;;;;;;4887316;29;20029;-79
2021/09/13 05:03:07;;;;;;;17.92;9.60;;;461.20;1920.00;;;;;;4887542;29;20566;-79
2021/09/13 05:05:33;;;;;;;18.75;10.23;;;461.20;1920.00;;;;;;4887981;29;20067;-79
2021/09/13 05:07:59;;;;;;;14.07;8.98;;;461.20;1920.00;;;;;;4894539;29;20040;-77
2021/09/13 05:10:24;;;;;;;12.38;8.20;;;461.20;1945.60;;;;;;4898488;29;20492;-81
2021/09/13 05:12:50;;;;;;;12.50;9.48;;;461.40;1920.00;;;;;;4898027;29;20064;-81
2021/09/13 05:15:16;;;;;;;21.30;9.68;;;461.30;1945.60;;;;;;4892869;29;20388;-80
2021/09/13 05:17:42;;;;;;;22.25;9.68;;;461.20;1971.20;;;;;;4904588;29;20036;-81
2021/09/13 05:20:08;;;;;;;14.95;9.00;;;461.30;1945.60;;;;;;4904374;29;20059;-80
2021/09/13 05:22:34;;;;;;;17.38;9.55;;;461.60;1945.60;;;;;;4895962;29;20029;-80
2021/09/13 05:25:00;;;;;;;16.52;8.85;;;461.50;1920.00;;;;;;4898321;29;20133;-80
2021/09/13 05:27:26;;;;;;;22.33;10.23;;;461.50;1971.20;;;;;;4892845;29;20041;-80
2021/09/13 05:29:52;;;;;;;18.48;10.20;;;461.60;1945.60;;;;;;4886646;29;20029;-80
2021/09/13 05:32:17;;;;;;;13.27;9.45;;;461.70;1945.60;;;;;;4893519;29;20546;-80
2021/09/13 05:34:43;;;;;;;17.02;10.43;;;486.40;1945.60;;;;;;4893638;29;20411;-80
2021/09/13 05:37:09;;;;;;;17.80;10.00;;;486.40;1971.20;;;;;;4887887;29;20025;-81
2021/09/13 05:39:35;;;;;;;17.05;10.68;;;486.40;1971.20;;;;;;4885701;29;20029;-81
2021/09/13 05:42:01;;;;;;;16.05;10.40;;;486.50;1971.20;;;;;;4885747;29;20104;-82
2021/09/13 05:44:26;;;;;;;19.90;9.40;;;486.60;1945.60;;;;;;4885480;29;20033;-81
2021/09/13 05:46:52;;;;;;;17.27;10.00;;;486.60;1920.00;;;;;;4881462;29;20040;-81
2021/09/13 05:49:18;;;;;;;11.77;9.18;;;486.70;1920.00;;;;;;4885771;29;20037;-82
2021/09/13 05:51:51;;;;;;;15.38;9.93;;;486.80;1894.40;;;;;;4885584;29;20584;-81
2021/09/13 05:54:21;;;;;;;14.40;9.13;;;486.90;1894.40;;;;;;4885785;29;20037;-82
2021/09/13 05:56:49;;;;;;;20.15;10.07;;;486.90;1894.40;;;;;;4886029;29;20120;-77
2021/09/13 05:59:19;;;;;;;20.02;9.57;;;487.00;1945.60;;;;;;4885336;29;20025;-80
2021/09/13 06:01:46;;;;;;;18.70;8.63;;;487.00;1996.80;;;;;;4885117;29;20043;-81
2021/09/13 06:04:12;;;;;;;19.83;9.80;;;487.00;1945.60;;;;;;4885189;29;20089;-78
2021/09/13 06:06:37;;;;;;;16.60;8.85;;;487.20;1868.80;;;;;;4885022;29;20436;-79
2021/09/13 06:09:03;;;;;;;17.17;8.98;;;487.20;1843.20;;;;;;4882269;29;20511;-79
2021/09/13 06:11:29;;;;;;;17.38;9.05;;;487.30;1868.80;;;;;;4884959;29;20508;-76
2021/09/13 06:13:55;;;;;;;15.60;7.93;;;512.10;1817.60;;;;;;4885007;29;20048;-78
2021/09/13 06:16:21;;;;;;;14.90;8.23;;;512.10;1817.60;;;;;;4884928;29;20369;-80
2021/09/13 06:18:47;;;;;;;20.92;8.57;;;512.10;1792.00;;;;;;4884943;29;20040;-77
2021/09/13 06:21:13;;;;;;;15.82;8.18;;;512.10;1817.60;;;;;;4884845;29;20037;-80
2021/09/13 06:23:39;;;;;;;15.02;8.25;;;512.30;1817.60;;;;;;4885179;29;20133;-80
2021/09/13 06:26:04;;;;;;;14.20;8.55;;;512.30;1817.60;;;;;;4884661;29;20388;-79
2021/09/13 06:28:30;;;;;;;19.00;8.10;;;512.50;1817.60;;;;;;4881932;29;20525;-80
2021/09/13 06:30:56;;;;;;;15.52;9.07;;;512.50;1817.60;;;;;;4881968;29;20032;-80
2021/09/13 06:33:22;;;;;;;12.60;7.97;;;512.60;1843.20;;;;;;4874168;29;20511;-81
2021/09/13 06:35:48;;;;;;;12.98;6.90;;;512.80;1817.60;;;;;;4882161;29;20108;-79
2021/09/13 06:38:13;;;;;;;13.10;8.68;;;512.90;1817.60;;;;;;4882069;29;20036;-82
2021/09/13 06:40:39;;;;;;;11.40;7.18;;;537.70;1817.60;;;;;;4882338;29;20109;-85
2021/09/13 06:43:06;;;;;;;12.48;7.57;;;537.70;1843.20;;;;;;4879556;29;20060;-80
2021/09/13 06:45:40;;;;;;;73.13;34.35;;;537.80;1817.60;;;;;;4882498;29;20025;-79
2021/09/13 06:48:14;;;;;;;328.80;155.23;;;538.00;1817.60;;;;;;4891510;29;20041;-81
2021/09/13 06:50:44;;;;;;;62.88;32.65;;;538.20;1792.00;;;;;;4890710;29;20037;-84
2021/09/13 06:53:10;;;;;;;19.48;10.75;;;538.20;1766.40;;;;;;4889906;29;20037;-82
2021/09/13 06:55:40;;;;;;;25.08;15.68;;;538.50;1766.40;;;;;;4892181;29;20049;-80
2021/09/13 06:58:07;;;;;;;13.70;7.88;;;563.30;1792.00;;;;;;4889617;29;20045;-78
2021/09/13 07:00:34;;;;;;;22.38;10.00;;;563.30;1817.60;;;;;;4892641;29;20024;-77
2021/09/13 07:03:00;;;;;;;75.55;37.55;;;563.30;1792.00;;;;;;4902235;29;20021;-84
2021/09/13 07:05:26;;;;;;;55.83;29.13;;;563.60;1817.60;;;;;;4887819;29;20056;-84
2021/09/13 07:07:53;;;;;;;26.38;14.43;;;563.90;1817.60;;;;;;4876979;29;20053;-84
2021/09/13 07:10:19;;;;;;;16.45;8.32;;;563.80;1843.20;;;;;;4881759;29;20049;-84
2021/09/13 07:12:48;;;;;;;17.42;9.30;;;564.00;1868.80;;;;;;4881683;29;20063;-80
2021/09/13 07:15:17;;;;;;;19.52;11.73;;;564.10;1868.80;;;;;;4881655;29;20086;-81
2021/09/13 07:17:43;;;;;;;16.05;9.10;;;564.10;1868.80;;;;;;4881571;29;20368;-80
2021/09/13 07:20:11;;;;;;;41.13;22.45;;;588.90;1817.60;;;;;;4881140;29;20025;-85
2021/09/13 07:22:36;;;;;;;19.50;11.02;;;588.80;1792.00;;;;;;4881448;29;20108;-83
2021/09/13 07:25:06;;;;;;;20.15;7.13;;;589.10;1766.40;;;;;;4881565;29;20057;-80
2021/09/13 07:27:32;;;;;;;8.60;6.18;;;589.20;1817.60;;;;;;4880844;29;20114;-78
2021/09/13 07:30:00;;;;;;;10.05;6.90;;;589.30;1792.00;;;;;;4880782;29;20113;-82
2021/09/13 07:32:26;;;;;;;11.48;6.32;;;589.30;1792.00;;;;;;4881049;29;20501;-80
2021/09/13 07:34:53;;;;;;;11.48;6.60;;;589.40;1766.40;;;;;;4880792;29;20037;-77
2021/09/13 07:37:18;;;;;;;15.60;6.05;;;589.50;1766.40;;;;;;4880862;29;20029;-79
2021/09/13 07:39:44;;;;;;;10.45;6.03;;;589.50;1740.80;;;;;;4880688;29;20029;-82
2021/09/13 07:42:10;;;;;;;12.13;7.35;;;589.50;1740.80;;;;;;4880958;29;20025;-82
2021/09/13 07:44:36;;;;;;;12.00;6.40;;;589.60;1740.80;;;;;;4880845;29;20426;-80
2021/09/13 07:47:02;;;;;;;10.43;6.63;;;589.60;1740.80;;;;;;4880765;29;20479;-82
2021/09/13 07:49:28;;;;;;;13.25;6.80;;;589.70;1740.80;;;;;;4880480;29;20033;-80
2021/09/13 07:51:54;;;;;;;10.57;7.22;;;589.70;1740.80;;;;;;4880981;29;20048;-87
2021/09/13 07:54:20;;;;;;;10.35;6.15;;;589.70;1766.40;;;;;;4874254;29;20140;-85
2021/09/13 07:56:46;;;;;;;13.80;5.50;;;589.70;1740.80;;;;;;4900213;29;20028;-83
2021/09/13 07:59:11;;;;;;;11.63;5.75;;;614.40;1664.00;;;;;;4905671;29;20039;-82
2021/09/13 08:01:37;;;;;;;18.13;5.35;;;614.50;1612.80;;;;;;4920807;29;20036;-79
2021/09/13 08:04:03;;;;;;;8.82;5.65;;;614.50;1612.80;;;;;;4916274;29;20447;-87
2021/09/13 08:06:29;;;;;;;12.48;5.32;;;614.60;1664.00;;;;;;4891938;29;20495;-86
2021/09/13 08:08:55;;;;;;;10.48;4.97;;;614.60;1612.80;;;;;;4890845;29;20040;-85
2021/09/13 08:11:21;;;;;;;14.05;4.88;;;614.70;1612.80;;;;;;4885716;29;20041;-85
2021/09/13 08:13:46;;;;;;;8.63;4.43;;;614.70;1561.60;;;;;;4880644;29;20112;-82
2021/09/13 08:16:12;;;;;;;17.48;5.18;;;614.80;1510.40;;;;;;4880300;29;20101;-80
2021/09/13 08:18:39;;;;;;;6.50;4.60;;;614.80;1510.40;;;;;;4874608;29;20454;-77
2021/09/13 08:21:08;;;;;;;12.95;5.40;;;614.80;1536.00;;;;;;4880271;29;20468;-77
2021/09/13 08:23:34;;;;;;;9.55;5.45;;;614.80;1587.20;;;;;;4873810;29;20128;-81
2021/09/13 08:26:05;;;;;;;13.02;4.82;;;614.80;1561.60;;;;;;4880166;29;20475;-81
2021/09/13 08:28:31;;;;;;;10.80;4.57;;;614.90;1561.60;;;;;;4891776;29;20033;-81
2021/09/13 08:30:57;;;;;;;10.77;5.15;;;614.90;1484.80;;;;;;4889209;29;20025;-81
2021/09/13 08:33:23;;;;;;;15.32;4.72;;;614.90;1433.60;;;;;;4889087;29;20440;-79
2021/09/13 08:35:49;;;;;;;9.82;4.68;;;615.00;1433.60;;;;;;4885603;29;20064;-80
2021/09/13 08:38:15;;;;;;;11.80;4.28;;;615.20;1433.60;;;;;;4887566;29;20032;-81
2021/09/13 08:40:42;;;;;;;9.00;4.68;;;615.10;1408.00;;;;;;4888804;29;20033;-81
2021/09/13 08:43:09;;;;;;;5.80;4.05;;;615.20;1408.00;;;;;;4888244;29;20059;-83
2021/09/13 08:45:42;;;;;;;7.70;4.13;;;615.20;1408.00;;;;;;4882332;29;20040;-83
2021/09/13 08:48:20;;;;;;;5.78;3.45;;;615.30;1356.80;;;;;;4882991;29;20439;-82
2021/09/13 08:53:15;;;;;;;11.55;4.32;;;640.10;1356.80;;;;;;4887240;29;20028;-79
2021/09/13 08:55:40;;;;;;;9.10;4.53;;;640.20;1356.80;;;;;;4889802;29;20046;-90
2021/09/13 08:58:07;;;;;;;8.38;4.25;;;640.20;1331.20;;;;;;4889018;29;20037;-81
2021/09/13 09:00:36;;;;;;;9.20;4.20;;;640.40;1280.00;;;;;;4880420;29;20068;-83
2021/09/13 09:03:05;;;;;;;11.50;4.15;;;640.50;1305.60;;;;;;4879772;29;20157;-83
2021/09/13 09:05:41;;;;;;;11.60;4.03;;;640.60;1305.60;;;;;;4880002;29;20025;-85
2021/09/13 09:08:10;;;;;;;9.30;3.85;;;640.70;1280.00;;;;;;4879858;29;20037;-83
2021/09/13 09:10:36;;;;;;;5.15;3.65;;;640.90;1280.00;;;;;;4888302;29;20017;-83
2021/09/13 09:13:10;;;;;;;9.32;3.83;;;665.60;1305.60;;;;;;4888155;29;20044;-82
2021/09/13 09:15:54;;;;;;;8.50;4.38;;;665.70;1305.60;;;;;;4895333;29;20084;-81
2021/09/13 09:18:23;;;;;;;6.38;4.72;;;665.90;1305.60;;;;;;4891132;29;20043;-82
2021/09/13 09:20:48;;;;;;;6.18;4.07;;;666.00;1305.60;;;;;;4898515;29;20028;-89
2021/09/13 09:23:14;;;;;;;11.50;4.40;;;666.00;1331.20;;;;;;4898626;29;20200;-81
2021/09/13 09:25:41;;;;;;;10.48;4.22;;;666.20;1305.60;;;;;;4898883;29;20028;-86
2021/09/13 09:28:16;;;;;;;6.15;3.92;;;666.30;1280.00;;;;;;4898349;29;20041;-88
2021/09/13 09:30:43;;;;;;;7.72;4.13;;;666.50;1280.00;;;;;;4898549;29;20029;-84
2021/09/13 09:33:17;;;;;;;8.45;4.70;;;691.20;1203.20;;;;;;4898230;29;20483;-83
2021/09/13 09:35:58;;;;;;;8.38;4.13;;;691.30;1228.80;;;;;;4898406;29;20024;-84
2021/09/13 09:38:37;;;;;;;5.95;3.95;;;691.40;1177.60;;;;;;4891537;29;20089;-83
2021/09/13 09:41:08;;;;;;;9.82;4.85;;;691.60;1203.20;;;;;;4898430;29;20048;-84
2021/09/13 09:43:56;;;;;;;6.20;3.80;;;691.70;1177.60;;;;;;4898406;29;20036;-85
2021/09/13 09:46:34;;;;;;;6.30;4.13;;;691.80;1126.40;;;;;;4898727;29;20045;-84
2021/09/13 09:49:17;;;;;;;7.70;4.38;;;691.90;1152.00;;;;;;4898232;29;20041;-85
2021/09/13 09:51:49;;;;;;;5.63;3.90;;;692.10;1177.60;;;;;;4892770;29;20027;-84
2021/09/13 09:54:17;;;;;;;7.55;3.67;;;716.90;1126.40;;;;;;4897055;29;20112;-84
2021/09/13 09:56:46;;;;;;;9.75;3.58;;;717.00;1100.80;;;;;;4879462;29;20024;-85
2021/09/13 09:59:13;;;;;;;8.77;4.38;;;717.20;1075.20;;;;;;4879189;29;20029;-85
2021/09/13 10:01:44;;;;;;;9.23;4.45;;;717.40;1126.40;;;;;;4880042;29;20044;-87
2021/09/13 10:04:25;;;;;;;7.93;3.63;;;717.50;1100.80;;;;;;4882327;29;20115;-78
2021/09/13 10:06:57;;;;;;;11.43;4.00;;;742.40;1126.40;;;;;;4883797;29;20033;-78
2021/09/13 10:09:24;;;;;;;11.68;4.50;;;742.50;1075.20;;;;;;4892339;29;20491;-78
2021/09/13 10:11:53;;;;;;;9.05;4.63;;;742.50;1049.60;;;;;;4892550;29;20074;-78
2021/09/13 10:14:21;;;;;;;5.63;3.58;;;742.70;1100.80;;;;;;4883490;29;20020;-78
2021/09/13 10:16:47;;;;;;;5.95;3.65;;;742.90;1049.60;;;;;;4892537;29;20037;-83
2021/09/13 10:19:14;;;;;;;9.02;4.00;;;742.90;1049.60;;;;;;4887692;29;20040;-79
2021/09/13 10:21:39;;;;;;;10.90;3.90;;;743.00;1049.60;;;;;;4891393;29;20104;-81
2021/09/13 10:24:12;;;;;;;8.45;3.90;;;743.00;1049.60;;;;;;4893683;29;20471;-81
2021/09/13 10:26:40;;;;;;;9.30;4.15;;;743.20;1049.60;;;;;;4889221;29;20060;-83
2021/09/13 10:29:07;;;;;;;9.18;4.15;;;743.10;1100.80;;;;;;4880981;29;20573;-82
2021/09/13 10:31:42;;;;;;;9.90;4.38;;;743.30;1075.20;;;;;;4928393;29;20122;-83
2021/09/13 10:34:19;;;;;;;10.63;4.13;;;768.00;1100.80;;;;;;4905508;29;20033;-83
2021/09/13 10:37:15;;;;;;;8.02;4.20;;;768.20;1075.20;;;;;;4892904;29;20061;-80
2021/09/13 10:40:01;;;;;;;6.60;3.83;;;768.50;1075.20;;;;;;4862455;29;20128;-81
2021/09/13 10:42:31;;;;;;;8.67;4.73;;;768.70;1049.60;;;;;;4876113;29;20056;-78
2021/09/13 10:45:16;;;;;;;8.07;3.78;;;768.70;998.40;;;;;;4897709;29;20065;-77
2021/09/13 10:48:04;;;;;;;9.52;3.85;;;768.90;998.40;;;;;;4881905;29;20191;-76
2021/09/13 10:50:32;;;;;;;11.40;4.45;;;793.60;1024.00;;;;;;4898017;29;20462;-76
2021/09/13 10:52:59;;;;;;;9.00;4.20;;;793.60;1024.00;;;;;;4898052;29;20032;-87
2021/09/13 10:55:39;;;;;;;11.20;4.15;;;793.70;998.40;;;;;;4881368;29;20036;-80
2021/09/13 10:58:18;;;;;;;6.35;3.90;;;793.80;998.40;;;;;;4879314;29;20559;-83
2021/09/13 11:00:44;;;;;;;7.60;4.15;;;793.70;998.40;;;;;;4879817;29;20057;-83
2021/09/13 11:06:12;;;;;;;7.25;4.35;;;793.80;998.40;;;;;;4860824;29;20080;-78
2021/09/13 11:08:47;;;;;;;12.95;4.72;;;793.80;998.40;;;;;;4871807;29;20044;-81
2021/09/13 11:11:16;;;;;;;7.30;4.13;;;794.00;1024.00;;;;;;4876988;29;20159;-77
2021/09/13 11:13:54;;;;;;;8.40;4.03;;;794.20;998.40;;;;;;4877945;29;20933;-78
2021/09/13 11:16:20;;;;;;;8.82;4.03;;;794.10;1024.00;;;;;;4872855;29;20080;-82
2021/09/13 11:18:47;;;;;;;9.32;4.57;;;794.20;998.40;;;;;;4881108;29;20496;-83
2021/09/13 11:21:19;;;;;;;8.90;4.22;;;794.40;972.80;;;;;;4883126;29;20387;-77
2021/09/13 11:23:48;;;;;;;9.43;4.45;;;819.30;947.20;;;;;;4883523;29;20025;-77
2021/09/13 11:26:16;;;;;;;9.65;4.78;;;819.40;972.80;;;;;;4906588;29;20033;-78
2021/09/13 11:29:04;;;;;;;8.27;4.38;;;819.30;972.80;;;;;;4898184;29;20029;-78
2021/09/13 11:31:44;;;;;;;8.23;4.10;;;819.60;921.60;;;;;;4893191;29;20031;-78
2021/09/13 11:34:13;;;;;;;9.02;3.83;;;819.20;921.60;;;;;;4893794;29;20431;-80
2021/09/13 11:36:49;;;;;;;9.90;4.32;;;819.30;947.20;;;;;;4895338;29;20069;-78
2021/09/13 11:39:15;;;;;;;7.63;4.13;;;819.40;972.80;;;;;;4881598;29;20025;-80
2021/09/13 11:41:51;;;;;;;8.65;4.28;;;819.50;921.60;;;;;;4888052;29;20033;-79
2021/09/13 11:44:17;;;;;;;10.35;4.68;;;819.60;921.60;;;;;;4880450;29;20052;-79
2021/09/13 11:47:00;;;;;;;7.80;4.40;;;819.80;921.60;;;;;;4887037;29;20032;-80
2021/09/13 11:49:29;;;;;;;7.32;4.15;;;819.30;972.80;;;;;;4888586;29;20041;-79
2021/09/13 11:52:11;;;;;;;6.72;4.40;;;819.20;947.20;;;;;;4880286;29;20492;-77
2021/09/13 11:54:49;;;;;;;9.85;4.30;;;819.40;972.80;;;;;;4890641;29;20058;-78
2021/09/13 11:57:42;;;;;;;9.07;3.92;;;819.80;947.20;;;;;;4887564;29;20029;-78
2021/09/13 12:00:08;;;;;;;9.68;4.20;;;819.70;947.20;;;;;;4822790;29;20046;-78
2021/09/13 12:02:35;;;;;;;6.90;3.63;;;819.90;921.60;;;;;;4822649;29;20054;-78
2021/09/13 12:05:09;;;;;;;7.55;4.10;;;820.00;896.00;;;;;;4807571;29;20042;-78
2021/09/13 12:07:35;;;;;;;7.57;4.28;;;844.80;896.00;;;;;;4822838;29;20038;-78
2021/09/13 12:10:01;;;;;;;6.18;4.05;;;820.10;921.60;;;;;;4822657;29;20506;-77
2021/09/13 12:12:28;;;;;;;10.48;3.70;;;820.10;947.20;;;;;;4822689;29;20145;-78
2021/09/13 12:15:01;;;;;;;8.90;3.78;;;820.10;896.00;;;;;;4822811;29;20089;-77
2021/09/13 12:17:43;;;;;;;6.05;3.53;;;844.90;947.20;;;;;;4822605;29;20050;-77
2021/09/13 12:20:33;;;;;;;9.18;6.03;;;820.10;998.40;;;;;;4822584;29;20105;-77
2021/09/13 12:23:01;;;;;;;17.05;4.28;;;820.10;972.80;;;;;;4822568;29;20034;-77